createdAt,value
2019-05-18T00:00:10.020Z,30.73
2019-05-18T00:02:38.685Z,29.90
2019-05-18T00:05:06.524Z,34.90
2019-05-18T00:07:33.637Z,35.73
2019-05-18T00:10:01.754Z,39.33
2019-05-18T00:12:28.325Z,42.60
2019-05-18T00:14:55.221Z,45.03
2019-05-18T00:17:25.324Z,37.93
2019-05-18T00:19:51.268Z,41.60
2019-05-18T00:22:20.368Z,41.60
2019-05-18T00:24:47.353Z,41.53
2019-05-18T00:27:14.236Z,40.30
2019-05-18T00:29:41.504Z,44.20
2019-05-18T00:32:09.082Z,41.27
2019-05-18T00:34:36.103Z,43.53
2019-05-18T00:37:02.769Z,43.40
2019-05-18T00:39:30.290Z,45.80
2019-05-18T00:41:58.505Z,43.00
2019-05-18T00:44:25.088Z,38.37
2019-05-18T00:46:51.733Z,39.43
2019-05-18T00:49:18.308Z,39.53
2019-05-18T00:51:44.880Z,39.10
2019-05-18T00:54:11.500Z,40.40
2019-05-18T00:56:38.063Z,30.53
2019-05-18T00:59:04.632Z,33.37
2019-05-18T01:01:31.151Z,31.30
2019-05-18T01:03:57.808Z,32.10
2019-05-18T01:06:24.396Z,31.80
2019-05-18T01:08:51.336Z,33.13
2019-05-18T01:11:18.236Z,37.63
2019-05-18T01:13:45.930Z,28.40
2019-05-18T01:16:12.510Z,33.80
2019-05-18T01:18:39.070Z,32.03
2019-05-18T01:21:05.642Z,34.97
2019-05-18T01:23:34.520Z,37.70
2019-05-18T01:26:01.085Z,37.93
2019-05-18T01:28:28.476Z,34.47
2019-05-18T01:30:55.172Z,32.77
2019-05-18T01:33:21.953Z,45.57
2019-05-18T01:35:48.528Z,52.03
2019-05-18T01:38:15.116Z,40.43
2019-05-18T01:40:41.789Z,37.30
2019-05-18T01:43:08.411Z,44.60
2019-05-18T01:45:35.257Z,45.40
2019-05-18T01:48:13.309Z,36.43
2019-05-18T01:50:31.508Z,43.37
2019-05-18T01:52:58.088Z,45.50
2019-05-18T01:55:24.664Z,44.00
2019-05-18T01:57:51.465Z,39.53
2019-05-18T02:00:19.680Z,39.00
2019-05-18T02:02:46.256Z,45.33
2019-05-18T02:05:12.948Z,55.73
2019-05-18T02:07:39.514Z,45.73
2019-05-18T02:10:06.303Z,38.47
2019-05-18T02:12:32.873Z,31.43
2019-05-18T02:14:59.464Z,41.13
2019-05-18T02:17:26.384Z,38.53
2019-05-18T02:19:52.945Z,40.13
2019-05-18T02:22:19.774Z,40.37
2019-05-18T02:24:46.884Z,29.80
2019-05-18T02:27:13.456Z,32.63
2019-05-18T02:29:40.370Z,38.07
2019-05-18T02:32:07.199Z,38.30
2019-05-18T02:34:35.072Z,35.30
2019-05-18T02:37:02.330Z,37.43
2019-05-18T02:39:28.894Z,39.67
2019-05-18T02:41:55.706Z,33.67
2019-05-18T02:44:22.390Z,37.63
2019-05-18T02:46:49.285Z,32.17
2019-05-18T02:49:15.867Z,34.03
2019-05-18T02:51:42.452Z,35.40
2019-05-18T02:54:09.313Z,34.43
2019-05-18T02:56:35.895Z,33.50
2019-05-18T02:59:02.483Z,33.33
2019-05-18T03:01:29.321Z,29.07
2019-05-18T03:03:56.822Z,29.40
2019-05-18T03:06:23.713Z,29.17
2019-05-18T03:08:50.394Z,29.50
2019-05-18T03:11:16.965Z,27.00
2019-05-18T03:13:43.549Z,29.50
2019-05-18T03:16:10.320Z,29.90
2019-05-18T03:18:37.420Z,29.83
2019-05-18T03:21:04.019Z,27.97
2019-05-18T03:23:30.685Z,30.70
2019-05-18T03:25:57.545Z,37.83
2019-05-18T03:28:24.638Z,29.63
2019-05-18T03:30:51.546Z,32.47
2019-05-18T03:33:18.477Z,34.43
2019-05-18T03:35:45.729Z,35.93
2019-05-18T03:38:12.577Z,28.87
2019-05-18T03:40:39.828Z,29.60
2019-05-18T03:43:06.772Z,36.00
2019-05-18T03:45:33.711Z,32.57
2019-05-18T03:48:00.311Z,33.60
2019-05-18T03:50:28.588Z,31.73
2019-05-18T03:52:55.220Z,32.70
2019-05-18T03:55:21.802Z,31.97
2019-05-18T03:57:48.637Z,31.90
2019-05-18T04:00:15.216Z,34.40
2019-05-18T04:02:42.201Z,34.67
2019-05-18T04:05:09.020Z,31.33
2019-05-18T04:07:35.698Z,31.70
2019-05-18T04:10:02.293Z,30.73
2019-05-18T04:12:28.975Z,32.77
2019-05-18T04:14:56.049Z,37.60
2019-05-18T04:17:22.641Z,32.60
2019-05-18T04:19:49.618Z,32.50
2019-05-18T04:22:16.476Z,27.83
2019-05-18T04:24:43.281Z,30.30
2019-05-18T04:27:09.980Z,33.33
2019-05-18T04:29:36.656Z,28.30
2019-05-18T04:32:03.225Z,32.43
2019-05-18T04:34:30.173Z,30.40
2019-05-18T04:36:56.750Z,28.70
2019-05-18T04:39:23.537Z,29.73
2019-05-18T04:41:50.627Z,30.73
2019-05-18T04:44:17.515Z,29.77
2019-05-18T04:46:44.085Z,34.43
2019-05-18T04:49:11.109Z,27.40
2019-05-18T04:51:37.953Z,31.60
2019-05-18T04:54:04.551Z,32.57
2019-05-18T04:56:31.318Z,28.80
2019-05-18T04:58:58.264Z,30.80
2019-05-18T05:01:24.868Z,28.33
2019-05-18T05:03:52.172Z,27.43
2019-05-18T05:06:18.754Z,29.73
2019-05-18T05:08:45.365Z,24.17
2019-05-18T05:11:11.957Z,27.43
2019-05-18T05:13:40.460Z,24.40
2019-05-18T05:16:07.297Z,27.33
2019-05-18T05:18:33.871Z,32.90
2019-05-18T05:21:00.701Z,28.53
2019-05-18T05:23:27.280Z,29.43
2019-05-18T05:25:54.152Z,24.87
2019-05-18T05:28:20.857Z,28.93
2019-05-18T05:30:47.448Z,29.57
2019-05-18T05:33:14.378Z,24.23
2019-05-18T05:35:41.232Z,27.53
2019-05-18T05:38:08.056Z,25.53
2019-05-18T05:40:35.031Z,27.67
2019-05-18T05:43:02.252Z,27.73
2019-05-18T05:45:29.097Z,26.67
2019-05-18T05:47:56.040Z,27.80
2019-05-18T05:50:34.580Z,24.43
2019-05-18T05:52:51.372Z,27.30
2019-05-18T05:55:17.961Z,24.30
2019-05-18T05:57:44.552Z,26.17
2019-05-18T06:00:11.798Z,27.58
2019-05-18T06:02:38.723Z,27.77
2019-05-18T06:05:05.535Z,22.37
2019-05-18T06:07:32.544Z,24.80
2019-05-18T06:10:01.281Z,23.60
2019-05-18T06:12:27.992Z,25.87
2019-05-18T06:14:55.208Z,19.90
2019-05-18T06:17:22.152Z,23.67
2019-05-18T06:19:48.765Z,23.53
2019-05-18T06:22:16.761Z,23.93
2019-05-18T06:24:43.700Z,22.53
2019-05-18T06:27:10.280Z,21.33
2019-05-18T06:29:36.872Z,21.93
2019-05-18T06:32:03.448Z,20.87
2019-05-18T06:34:30.040Z,23.13
2019-05-18T06:36:56.628Z,19.87
2019-05-18T06:39:23.213Z,24.73
2019-05-18T06:41:50.056Z,24.80
2019-05-18T06:44:16.900Z,22.80
2019-05-18T06:46:43.485Z,31.30
2019-05-18T06:49:10.217Z,21.80
2019-05-18T06:51:36.805Z,23.57
2019-05-18T06:54:04.562Z,19.50
2019-05-18T06:56:32.140Z,22.53
2019-05-18T06:58:59.025Z,22.50
2019-05-18T07:01:27.565Z,22.90
2019-05-18T07:03:54.661Z,20.40
2019-05-18T07:06:21.261Z,22.00
2019-05-18T07:08:47.840Z,21.23
2019-05-18T07:11:14.760Z,20.60
2019-05-18T07:13:41.344Z,21.53
2019-05-18T07:16:07.937Z,21.67
2019-05-18T07:18:34.879Z,26.93
2019-05-18T07:21:01.460Z,24.10
2019-05-18T07:23:28.326Z,21.57
2019-05-18T07:25:55.292Z,27.23
2019-05-18T07:28:21.892Z,21.37
2019-05-18T07:30:49.048Z,21.90
2019-05-18T07:33:15.708Z,22.10
2019-05-18T07:35:42.310Z,20.67
2019-05-18T07:38:09.320Z,20.53
2019-05-18T07:40:36.531Z,20.40
2019-05-18T07:43:03.780Z,19.97
2019-05-18T07:45:30.381Z,17.60
2019-05-18T07:47:56.969Z,23.13
2019-05-18T07:50:23.561Z,24.00
2019-05-18T07:52:50.200Z,20.90
2019-05-18T07:55:16.781Z,22.43
2019-05-18T07:57:43.717Z,19.27
2019-05-18T08:00:10.639Z,18.97
2019-05-18T08:02:37.904Z,21.60
2019-05-18T08:05:06.013Z,18.03
2019-05-18T08:07:32.609Z,22.90
2019-05-18T08:09:59.221Z,20.90
2019-05-18T08:12:26.309Z,20.03
2019-05-18T08:14:53.134Z,20.57
2019-05-18T08:17:20.011Z,20.77
2019-05-18T08:19:46.893Z,20.73
2019-05-18T08:22:13.564Z,19.63
2019-05-18T08:24:40.512Z,23.07
2019-05-18T08:27:07.285Z,20.13
2019-05-18T08:29:34.805Z,21.97
2019-05-18T08:32:01.780Z,22.67
2019-05-18T08:34:28.536Z,22.10
2019-05-18T08:36:55.153Z,23.63
2019-05-18T08:39:21.985Z,25.70
2019-05-18T08:41:49.093Z,24.83
2019-05-18T08:44:16.477Z,25.53
2019-05-18T08:46:43.070Z,23.90
2019-05-18T08:49:09.985Z,23.90
2019-05-18T08:51:36.596Z,26.50
2019-05-18T08:54:03.535Z,26.07
2019-05-18T08:56:30.179Z,25.20
2019-05-18T08:58:57.330Z,27.20
2019-05-18T09:01:23.949Z,29.57
2019-05-18T09:03:50.801Z,28.30
2019-05-18T09:06:17.652Z,29.43
2019-05-18T09:08:44.633Z,26.30
2019-05-18T09:11:11.224Z,28.10
2019-05-18T09:13:37.817Z,30.73
2019-05-18T09:16:04.424Z,30.60
2019-05-18T09:18:31.148Z,28.17
2019-05-18T09:20:57.981Z,25.53
2019-05-18T09:23:24.952Z,30.13
2019-05-18T09:25:52.892Z,29.63
2019-05-18T09:28:19.547Z,33.83
2019-05-18T09:30:46.225Z,30.90
2019-05-18T09:33:12.824Z,31.30
2019-05-18T09:35:39.876Z,29.57
2019-05-18T09:38:06.484Z,32.33
2019-05-18T09:40:33.121Z,30.20
2019-05-18T09:42:59.711Z,30.50
2019-05-18T09:45:26.538Z,32.27
2019-05-18T09:47:53.760Z,28.10
2019-05-18T09:50:20.821Z,30.23
2019-05-18T09:52:47.764Z,30.33
2019-05-18T09:55:15.342Z,30.27
2019-05-18T09:57:42.577Z,29.73
2019-05-18T10:00:10.575Z,28.17
2019-05-18T10:02:37.165Z,32.50
2019-05-18T10:05:04.208Z,25.37
2019-05-18T10:07:31.317Z,25.63
2019-05-18T10:09:58.232Z,26.17
2019-05-18T10:12:25.009Z,25.90
2019-05-18T10:14:53.192Z,28.60
2019-05-18T10:17:19.965Z,27.67
2019-05-18T10:19:46.964Z,27.73
2019-05-18T10:22:13.608Z,26.90
2019-05-18T10:24:41.265Z,25.53
2019-05-18T10:27:08.386Z,26.97
2019-05-18T10:29:35.007Z,27.13
2019-05-18T10:32:01.602Z,27.00
2019-05-18T10:34:28.512Z,27.80
2019-05-18T10:36:55.123Z,27.07
2019-05-18T10:39:21.712Z,23.60
2019-05-18T10:41:48.606Z,26.37
2019-05-18T10:44:15.595Z,27.30
2019-05-18T10:46:42.482Z,23.40
2019-05-18T10:49:09.090Z,24.30
2019-05-18T10:51:35.764Z,26.10
2019-05-18T10:54:02.745Z,25.80
2019-05-18T10:56:31.210Z,23.43
2019-05-18T10:58:57.938Z,25.67
2019-05-18T11:01:25.189Z,22.77
2019-05-18T11:03:51.776Z,26.43
2019-05-18T11:06:19.456Z,22.83
2019-05-18T11:08:46.348Z,22.87
2019-05-18T11:11:13.390Z,23.57
2019-05-18T11:13:40.348Z,20.97
2019-05-18T11:16:06.994Z,20.60
2019-05-18T11:18:33.672Z,23.73
2019-05-18T11:21:01.220Z,22.40
2019-05-18T11:23:41.360Z,26.30
2019-05-18T11:25:56.329Z,23.00
2019-05-18T11:28:22.941Z,23.90
2019-05-18T11:30:49.525Z,20.90
2019-05-18T11:33:16.510Z,21.67
2019-05-18T11:35:43.589Z,26.93
2019-05-18T11:38:10.793Z,25.30
2019-05-18T11:40:37.443Z,26.37
2019-05-18T11:43:04.064Z,29.80
2019-05-18T11:45:31.118Z,26.00
2019-05-18T11:47:58.749Z,31.40
2019-05-18T11:50:25.456Z,31.63
2019-05-18T11:52:52.248Z,30.33
2019-05-18T11:55:18.838Z,29.47
2019-05-18T11:57:45.740Z,26.73
2019-05-18T12:00:14.417Z,29.37
2019-05-18T12:02:41.109Z,32.30
2019-05-18T12:05:08.104Z,33.80
2019-05-18T12:07:34.694Z,29.80
2019-05-18T12:10:01.354Z,30.40
2019-05-18T12:12:30.621Z,30.40
2019-05-18T12:14:58.761Z,31.90
2019-05-18T12:17:25.348Z,32.00
2019-05-18T12:19:52.008Z,37.93
2019-05-18T12:22:18.656Z,31.20
2019-05-18T12:24:45.812Z,33.33
2019-05-18T12:27:12.761Z,35.90
2019-05-18T12:29:40.378Z,36.83
2019-05-18T12:32:07.573Z,35.87
2019-05-18T12:34:34.535Z,34.67
2019-05-18T12:37:01.141Z,36.47
2019-05-18T12:39:27.730Z,34.80
2019-05-18T12:41:54.340Z,37.73
2019-05-18T12:44:22.040Z,40.77
2019-05-18T12:46:48.686Z,40.40
2019-05-18T12:49:15.527Z,38.73
2019-05-18T12:51:42.045Z,37.90
2019-05-18T12:54:08.577Z,37.37
2019-05-18T12:56:35.185Z,42.60
2019-05-18T12:59:02.117Z,41.00
2019-05-18T13:01:29.073Z,42.23
2019-05-18T13:03:55.714Z,39.90
2019-05-18T13:06:22.307Z,41.30
2019-05-18T13:08:48.913Z,39.27
2019-05-18T13:11:15.530Z,43.40
2019-05-18T13:13:42.129Z,40.17
2019-05-18T13:16:09.006Z,41.77
2019-05-18T13:18:35.612Z,43.00
2019-05-18T13:21:02.476Z,42.10
2019-05-18T13:23:29.423Z,38.33
2019-05-18T13:25:56.372Z,40.50
2019-05-18T13:28:23.314Z,38.20
2019-05-18T13:30:49.904Z,38.87
2019-05-18T13:33:16.581Z,40.77
2019-05-18T13:35:45.663Z,39.33
2019-05-18T13:38:12.018Z,39.17
2019-05-18T13:40:38.768Z,37.43
2019-05-18T13:43:05.351Z,36.03
2019-05-18T13:45:31.941Z,34.20
2019-05-18T13:47:58.820Z,36.60
2019-05-18T13:50:28.492Z,32.77
2019-05-18T13:52:55.084Z,31.93
2019-05-18T13:55:21.724Z,30.30
2019-05-18T13:57:48.903Z,33.17
2019-05-18T14:00:17.312Z,30.50
2019-05-18T14:02:43.916Z,27.47
2019-05-18T14:05:10.953Z,29.67
2019-05-18T14:07:37.802Z,26.33
2019-05-18T14:10:05.592Z,27.00
2019-05-18T14:12:32.198Z,24.47
2019-05-18T14:14:58.974Z,25.40
2019-05-18T14:17:25.583Z,24.53
2019-05-18T14:19:52.202Z,23.30
2019-05-18T14:22:18.920Z,22.73
2019-05-18T14:24:45.680Z,27.20
2019-05-18T14:27:12.357Z,21.07
2019-05-18T14:29:39.020Z,26.43
2019-05-18T14:32:05.633Z,24.13
2019-05-18T14:34:32.764Z,24.40
2019-05-18T14:36:59.359Z,24.50
2019-05-18T14:39:26.152Z,25.70
2019-05-18T14:41:53.301Z,23.40
2019-05-18T14:44:19.896Z,25.87
2019-05-18T14:46:46.501Z,23.93
2019-05-18T14:49:13.093Z,23.67
2019-05-18T14:51:40.069Z,21.57
2019-05-18T14:54:07.698Z,24.77
2019-05-18T14:56:34.272Z,23.47
2019-05-18T14:59:01.163Z,22.17
2019-05-18T15:01:28.266Z,24.57
2019-05-18T15:03:54.882Z,23.43
2019-05-18T15:06:22.327Z,23.67
2019-05-18T15:08:49.113Z,22.17
2019-05-18T15:11:15.696Z,24.20
2019-05-18T15:13:42.556Z,23.53
2019-05-18T15:16:09.704Z,20.93
2019-05-18T15:18:36.293Z,24.20
2019-05-18T15:21:03.184Z,23.03
2019-05-18T15:23:30.153Z,20.67
2019-05-18T15:25:57.064Z,22.70
2019-05-18T15:28:23.672Z,21.80
2019-05-18T15:30:50.334Z,23.40
2019-05-18T15:33:17.793Z,25.50
2019-05-18T15:35:44.509Z,20.57
2019-05-18T15:38:11.404Z,24.33
2019-05-18T15:40:38.533Z,22.90
2019-05-18T15:43:05.414Z,26.47
2019-05-18T15:45:32.101Z,26.90
2019-05-18T15:48:00.773Z,25.73
2019-05-18T15:50:27.405Z,24.73
2019-05-18T15:52:54.120Z,32.00
2019-05-18T15:55:21.821Z,24.60
2019-05-18T15:57:48.808Z,25.43
2019-05-18T16:00:16.035Z,26.53
2019-05-18T16:02:42.690Z,25.67
2019-05-18T16:05:09.399Z,25.97
2019-05-18T16:07:37.605Z,27.67
2019-05-18T16:10:04.453Z,27.57
2019-05-18T16:12:31.529Z,25.83
2019-05-18T16:14:58.449Z,26.07
2019-05-18T16:17:38.302Z,27.70
2019-05-18T16:19:53.681Z,25.77
2019-05-18T16:22:20.269Z,25.60
2019-05-18T16:24:46.914Z,29.13
2019-05-18T16:27:13.781Z,29.30
2019-05-18T16:29:40.623Z,25.60
2019-05-18T16:32:07.861Z,26.67
2019-05-18T16:34:36.744Z,28.33
2019-05-18T16:37:03.354Z,27.63
2019-05-18T16:39:30.538Z,27.67
2019-05-18T16:41:57.325Z,29.93
2019-05-18T16:44:23.941Z,30.60
2019-05-18T16:46:50.528Z,28.53
2019-05-18T16:49:17.149Z,25.53
2019-05-18T16:51:43.757Z,29.60
2019-05-18T16:54:10.351Z,28.80
2019-05-18T16:56:37.432Z,25.80
2019-05-18T16:59:04.353Z,26.30
2019-05-18T17:01:31.225Z,28.00
2019-05-18T17:03:57.827Z,31.80
2019-05-18T17:06:24.457Z,28.30
2019-05-18T17:08:51.354Z,29.43
2019-05-18T17:11:18.461Z,27.60
2019-05-18T17:13:45.532Z,26.40
2019-05-18T17:16:12.170Z,27.33
2019-05-18T17:18:38.774Z,25.00
2019-05-18T17:21:05.265Z,28.47
2019-05-18T17:23:31.876Z,28.03
2019-05-18T17:25:58.473Z,28.83
2019-05-18T17:28:25.214Z,29.30
2019-05-18T17:30:51.832Z,32.27
2019-05-18T17:33:18.437Z,31.50
2019-05-18T17:35:59.322Z,30.23
2019-05-18T17:38:14.361Z,32.33
2019-05-18T17:40:41.293Z,36.03
2019-05-18T17:43:07.795Z,38.40
2019-05-18T17:45:34.435Z,34.10
2019-05-18T17:48:01.127Z,36.10
2019-05-18T17:50:27.705Z,33.00
2019-05-18T17:52:54.584Z,32.43
2019-05-18T17:55:21.158Z,31.87
2019-05-18T17:57:47.952Z,31.80
2019-05-18T18:00:14.814Z,42.10
2019-05-18T18:02:41.844Z,33.70
2019-05-18T18:05:08.921Z,31.17
2019-05-18T18:07:36.281Z,37.50
2019-05-18T18:10:03.157Z,29.40
2019-05-18T18:12:30.145Z,33.93
2019-05-18T18:14:56.981Z,30.67
2019-05-18T18:17:23.638Z,36.00
2019-05-18T18:19:50.328Z,37.40
2019-05-18T18:22:16.963Z,32.60
2019-05-18T18:24:44.148Z,34.97
2019-05-18T18:27:24.037Z,31.37
2019-05-18T18:29:39.981Z,32.63
2019-05-18T18:32:07.953Z,41.97
2019-05-18T18:34:35.748Z,37.60
2019-05-18T18:37:02.342Z,39.03
2019-05-18T18:39:29.177Z,42.37
2019-05-18T18:41:55.945Z,36.23
2019-05-18T18:44:22.528Z,34.00
2019-05-18T18:46:49.418Z,33.57
2019-05-18T18:49:16.042Z,35.80
2019-05-18T18:51:42.633Z,37.33
2019-05-18T18:54:12.389Z,34.93
2019-05-18T18:56:37.778Z,39.90
2019-05-18T18:59:06.169Z,34.63
2019-05-18T19:01:33.441Z,42.77
2019-05-18T19:04:01.065Z,39.73
2019-05-18T19:06:27.660Z,41.00
2019-05-18T19:08:54.708Z,39.03
2019-05-18T19:11:21.312Z,41.00
2019-05-18T19:13:48.782Z,43.10
2019-05-18T19:16:15.405Z,47.20
2019-05-18T19:18:42.017Z,44.37
2019-05-18T19:21:08.896Z,38.60
2019-05-18T19:23:35.493Z,41.63
2019-05-18T19:26:02.126Z,48.63
2019-05-18T19:28:28.774Z,43.53
2019-05-18T19:30:55.740Z,43.27
2019-05-18T19:33:22.730Z,43.50
2019-05-18T19:35:49.645Z,52.50
2019-05-18T19:38:16.700Z,46.23
2019-05-18T19:40:43.388Z,44.33
2019-05-18T19:43:09.965Z,45.90
2019-05-18T19:45:36.916Z,45.50
2019-05-18T19:48:03.975Z,49.20
2019-05-18T19:50:30.933Z,46.17
2019-05-18T19:52:57.858Z,48.03
2019-05-18T19:55:24.667Z,49.50
2019-05-18T19:57:51.957Z,47.10
2019-05-18T20:00:18.957Z,48.30
2019-05-18T20:02:45.653Z,46.60
2019-05-18T20:05:12.589Z,45.60
2019-05-18T20:07:39.816Z,49.03
2019-05-18T20:10:07.026Z,46.87
2019-05-18T20:12:33.674Z,58.60
2019-05-18T20:15:00.706Z,47.07
2019-05-18T20:17:27.545Z,49.00
2019-05-18T20:19:54.760Z,49.07
2019-05-18T20:22:21.677Z,45.07
2019-05-18T20:24:48.636Z,45.20
2019-05-18T20:27:15.221Z,50.30
2019-05-18T20:29:42.120Z,46.03
2019-05-18T20:32:09.080Z,51.53
2019-05-18T20:34:35.775Z,58.13
2019-05-18T20:37:02.376Z,49.53
2019-05-18T20:39:31.087Z,50.77
2019-05-18T20:41:58.170Z,53.50
2019-05-18T20:44:24.785Z,54.53
2019-05-18T20:46:51.358Z,49.37
2019-05-18T20:49:18.381Z,58.57
2019-05-18T20:51:45.360Z,53.43
2019-05-18T20:54:12.741Z,55.93
2019-05-18T20:56:39.641Z,51.87
2019-05-18T20:59:06.619Z,59.33
2019-05-18T21:01:33.661Z,57.83
2019-05-18T21:04:02.122Z,56.60
2019-05-18T21:06:29.053Z,55.07
2019-05-18T21:08:55.908Z,64.13
2019-05-18T21:11:22.592Z,60.73
2019-05-18T21:13:49.193Z,64.63
2019-05-18T21:16:15.769Z,69.07
2019-05-18T21:18:42.652Z,63.43
2019-05-18T21:21:09.301Z,68.90
2019-05-18T21:23:35.910Z,60.30
2019-05-18T21:26:02.862Z,54.00
2019-05-18T21:28:29.473Z,56.67
2019-05-18T21:30:56.449Z,61.20
2019-05-18T21:33:23.491Z,62.83
2019-05-18T21:35:50.380Z,59.33
2019-05-18T21:38:16.952Z,55.93
2019-05-18T21:40:43.528Z,67.43
2019-05-18T21:43:10.420Z,57.03
2019-05-18T21:45:37.544Z,62.27
2019-05-18T21:48:04.450Z,65.70
2019-05-18T21:50:31.513Z,75.37
2019-05-18T21:52:58.613Z,61.57
2019-05-18T21:55:25.585Z,60.07
2019-05-18T21:57:52.456Z,63.57
2019-05-18T22:00:20.136Z,60.77
2019-05-18T22:02:48.608Z,65.27
2019-05-18T22:05:15.534Z,55.03
2019-05-18T22:07:42.781Z,65.83
2019-05-18T22:10:24.419Z,67.60
2019-05-18T22:12:38.728Z,60.70
2019-05-18T22:15:05.609Z,68.57
2019-05-18T22:17:36.292Z,58.13
2019-05-18T22:20:03.442Z,58.83
2019-05-18T22:22:31.725Z,57.63
2019-05-18T22:24:58.353Z,59.77
2019-05-18T22:27:25.013Z,50.90
2019-05-18T22:29:51.823Z,50.97
2019-05-18T22:32:18.676Z,55.80
2019-05-18T22:34:45.461Z,70.93
2019-05-18T22:37:12.048Z,46.70
2019-05-18T22:39:39.928Z,44.23
2019-05-18T22:42:06.538Z,45.60
2019-05-18T22:44:33.117Z,45.40
2019-05-18T22:46:59.697Z,46.80
2019-05-18T22:49:26.417Z,45.47
2019-05-18T22:51:54.113Z,44.60
2019-05-18T22:54:20.700Z,42.77
2019-05-18T22:56:47.397Z,48.87
2019-05-18T22:59:13.980Z,43.57
2019-05-18T23:01:40.568Z,43.17
2019-05-18T23:04:07.461Z,49.87
2019-05-18T23:06:34.580Z,42.20
2019-05-18T23:09:02.852Z,40.87
2019-05-18T23:11:30.969Z,43.23
2019-05-18T23:13:57.553Z,41.10
2019-05-18T23:16:24.137Z,35.20
2019-05-18T23:18:56.884Z,38.50
2019-05-18T23:21:19.536Z,40.00
2019-05-18T23:23:46.506Z,40.30
2019-05-18T23:26:13.834Z,36.50
2019-05-18T23:28:40.768Z,37.07
2019-05-18T23:31:09.042Z,40.40
2019-05-18T23:33:35.641Z,35.93
2019-05-18T23:36:03.328Z,36.53
2019-05-18T23:38:30.288Z,44.97
2019-05-18T23:40:56.873Z,36.47
2019-05-18T23:43:23.455Z,37.80
2019-05-18T23:45:50.449Z,36.87
2019-05-18T23:48:17.643Z,40.80
2019-05-18T23:50:44.600Z,47.37
2019-05-18T23:53:12.983Z,33.70
2019-05-18T23:55:39.568Z,28.00
2019-05-18T23:58:06.565Z,29.00
